createdAt,value
2022-09-20T00:01:49.988Z,2.58
2022-09-20T00:04:18.932Z,3.47
2022-09-20T00:06:47.897Z,4.47
2022-09-20T00:09:16.893Z,7.70
2022-09-20T00:11:46.157Z,9.27
2022-09-20T00:14:15.198Z,9.73
2022-09-20T00:16:45.582Z,7.38
2022-09-20T00:19:21.159Z,5.88
2022-09-20T00:21:50.135Z,5.25
2022-09-20T00:24:19.312Z,4.07
2022-09-20T00:26:48.316Z,4.55
2022-09-20T00:29:17.260Z,3.75
2022-09-20T00:31:47.843Z,3.15
2022-09-20T00:34:34.350Z,2.90
2022-09-20T00:37:03.405Z,2.63
2022-09-20T00:39:32.411Z,2.03
2022-09-20T00:42:01.365Z,1.80
2022-09-20T00:45:00.662Z,1.58
2022-09-20T00:47:41.270Z,1.80
2022-09-20T00:50:33.214Z,1.77
2022-09-20T00:53:08.287Z,2.00
2022-09-20T00:55:42.298Z,2.40
2022-09-20T00:58:11.400Z,2.60
2022-09-20T01:00:41.256Z,2.53
2022-09-20T01:03:12.515Z,3.55
2022-09-20T01:05:42.512Z,4.35
2022-09-20T01:08:12.670Z,5.05
2022-09-20T01:10:42.621Z,5.00
2022-09-20T01:13:11.843Z,7.95
2022-09-20T01:15:41.705Z,9.27
2022-09-20T01:18:12.670Z,11.25
2022-09-20T01:20:44.615Z,12.20
2022-09-20T01:23:48.140Z,13.70
2022-09-20T01:27:00.165Z,14.07
2022-09-20T01:29:48.886Z,12.00
2022-09-20T01:32:26.768Z,9.63
2022-09-20T01:35:01.289Z,7.38
2022-09-20T01:37:40.287Z,6.40
2022-09-20T01:40:18.451Z,7.03
2022-09-20T01:42:56.812Z,9.98
2022-09-20T01:45:31.261Z,10.32
2022-09-20T01:48:10.940Z,10.35
2022-09-20T01:51:04.219Z,8.65
2022-09-20T01:54:11.253Z,7.03
2022-09-20T01:57:27.453Z,8.25
2022-09-20T02:00:13.221Z,7.30
2022-09-20T02:03:41.842Z,6.72
2022-09-20T02:06:40.372Z,3.92
2022-09-20T02:12:35.298Z,2.30
2022-09-20T02:15:17.460Z,3.78
2022-09-20T02:18:02.479Z,4.18
2022-09-20T02:20:50.069Z,5.18
2022-09-20T02:23:36.217Z,8.00
2022-09-20T02:26:24.642Z,8.50
2022-09-20T02:29:02.513Z,8.15
2022-09-20T02:32:01.683Z,9.07
2022-09-20T02:34:52.086Z,8.45
2022-09-20T02:37:58.806Z,9.10
2022-09-20T02:41:16.144Z,7.72
2022-09-20T02:43:55.268Z,8.85
2022-09-20T02:46:32.516Z,8.20
2022-09-20T02:49:09.642Z,6.80
2022-09-20T02:51:43.317Z,7.43
2022-09-20T02:54:29.953Z,7.80
2022-09-20T02:57:08.260Z,6.75
2022-09-20T02:59:46.516Z,5.70
2022-09-20T03:02:26.904Z,5.30
2022-09-20T03:05:14.470Z,4.60
2022-09-20T03:08:03.284Z,4.90
2022-09-20T03:10:43.599Z,4.63
2022-09-20T03:13:24.641Z,5.63
2022-09-20T03:16:08.757Z,4.90
2022-09-20T03:18:50.178Z,4.65
2022-09-20T03:21:38.852Z,3.80
2022-09-20T03:24:21.260Z,5.00
2022-09-20T03:26:59.397Z,4.43
2022-09-20T03:29:44.921Z,4.15
2022-09-20T03:32:32.793Z,5.68
2022-09-20T03:35:21.107Z,8.90
2022-09-20T03:38:12.731Z,9.68
2022-09-20T03:41:20.218Z,11.15
2022-09-20T03:44:09.068Z,11.15
2022-09-20T03:46:46.265Z,10.93
2022-09-20T03:49:54.897Z,8.70
2022-09-20T03:52:47.416Z,6.88
2022-09-20T03:55:47.778Z,5.20
2022-09-20T03:58:36.001Z,4.88
2022-09-20T04:01:31.014Z,4.72
2022-09-20T04:04:12.896Z,5.28
2022-09-20T04:07:14.597Z,4.70
2022-09-20T04:10:24.311Z,3.67
2022-09-20T04:13:18.179Z,2.95
2022-09-20T04:16:03.940Z,3.40
2022-09-20T04:18:39.603Z,2.85
2022-09-20T04:21:17.468Z,2.95
2022-09-20T04:23:54.975Z,3.53
2022-09-20T04:26:29.444Z,5.93
2022-09-20T04:29:14.394Z,5.50
2022-09-20T04:31:54.070Z,5.80
2022-09-20T04:34:46.579Z,7.40
2022-09-20T04:37:29.757Z,5.95
2022-09-20T04:40:15.117Z,6.97
2022-09-20T04:43:33.331Z,5.88
2022-09-20T04:46:39.030Z,4.60
2022-09-20T04:50:05.628Z,4.50
2022-09-20T04:53:08.799Z,3.58
2022-09-20T04:55:57.635Z,3.47
2022-09-20T04:58:50.668Z,3.45
2022-09-20T05:02:25.945Z,3.30
2022-09-20T05:05:51.441Z,3.08
2022-09-20T05:09:02.247Z,3.03
2022-09-20T05:12:02.542Z,3.08
2022-09-20T05:15:01.579Z,2.60
2022-09-20T05:17:46.011Z,2.83
2022-09-20T05:20:44.572Z,2.90
2022-09-20T05:26:21.488Z,5.75
2022-09-20T05:29:00.060Z,5.72
2022-09-20T05:31:40.414Z,4.57
2022-09-20T05:34:21.642Z,6.88
2022-09-20T05:36:59.965Z,7.90
2022-09-20T05:39:44.283Z,9.50
2022-09-20T05:42:24.127Z,8.25
2022-09-20T05:45:05.510Z,8.38
2022-09-20T05:47:46.302Z,8.85
2022-09-20T05:50:46.246Z,6.90
2022-09-20T05:54:06.316Z,6.53
2022-09-20T05:56:46.749Z,6.30
2022-09-20T05:59:31.688Z,5.85
2022-09-20T06:02:22.086Z,5.53
2022-09-20T06:05:03.485Z,4.60
2022-09-20T06:07:51.757Z,3.72
2022-09-20T06:10:47.300Z,3.83
2022-09-20T06:13:51.039Z,3.60
2022-09-20T06:16:30.947Z,2.85
2022-09-20T06:19:12.808Z,3.03
2022-09-20T06:21:49.552Z,3.10
2022-09-20T06:24:36.637Z,2.85
2022-09-20T06:27:15.022Z,2.67
2022-09-20T06:29:54.112Z,3.30
2022-09-20T06:32:23.058Z,3.88
2022-09-20T06:34:53.115Z,5.05
2022-09-20T06:38:02.747Z,5.68
2022-09-20T06:40:58.083Z,6.60
2022-09-20T06:43:30.992Z,8.27
2022-09-20T06:46:00.251Z,6.90
2022-09-20T06:48:31.562Z,6.40
2022-09-20T06:51:02.088Z,5.00
2022-09-20T06:53:33.664Z,3.83
2022-09-20T06:56:04.368Z,2.60
2022-09-20T06:58:37.480Z,2.42
2022-09-20T07:01:06.928Z,2.30
2022-09-20T07:03:35.915Z,3.30
2022-09-20T07:06:05.364Z,4.05
2022-09-20T07:08:34.635Z,4.63
2022-09-20T07:11:09.746Z,4.72
2022-09-20T07:13:40.131Z,4.20
2022-09-20T07:16:11.914Z,4.28
2022-09-20T07:18:42.058Z,3.28
2022-09-20T07:21:13.245Z,3.13
2022-09-20T07:23:42.338Z,3.30
2022-09-20T07:26:21.173Z,2.83
2022-09-20T07:28:52.070Z,2.85
2022-09-20T07:31:25.249Z,3.60
2022-09-20T07:33:54.545Z,3.10
2022-09-20T07:36:24.733Z,2.75
2022-09-20T07:38:54.558Z,2.78
2022-09-20T07:41:24.017Z,2.35
2022-09-20T07:43:54.483Z,3.00
2022-09-20T07:46:24.243Z,2.70
2022-09-20T07:48:53.365Z,2.63
2022-09-20T07:51:22.389Z,2.58
2022-09-20T07:53:56.144Z,2.33
2022-09-20T07:56:25.134Z,1.55
2022-09-20T07:58:55.589Z,1.15
2022-09-20T08:01:24.646Z,1.48
2022-09-20T08:03:54.125Z,1.55
2022-09-20T08:06:23.127Z,0.90
2022-09-20T08:08:52.410Z,0.80
2022-09-20T08:11:28.712Z,0.25
2022-09-20T08:14:06.141Z,0.40
2022-09-20T08:16:41.353Z,0.32
2022-09-20T08:19:15.257Z,0.43
2022-09-20T08:21:44.538Z,0.35
2022-09-20T08:24:13.880Z,0.40
2022-09-20T08:26:43.646Z,0.20
2022-09-20T08:29:15.337Z,0.20
2022-09-20T08:31:44.835Z,0.43
2022-09-20T08:34:16.104Z,0.40
2022-09-20T08:36:50.159Z,0.50
2022-09-20T08:42:25.282Z,0.43
2022-09-20T08:45:00.722Z,0.55
2022-09-20T08:47:32.500Z,0.13
2022-09-20T08:50:17.238Z,0.25
2022-09-20T08:52:49.683Z,0.40
2022-09-20T08:55:22.539Z,0.45
2022-09-20T08:57:55.054Z,0.30
2022-09-20T09:00:29.885Z,0.40
2022-09-20T09:03:05.499Z,0.40
2022-09-20T09:05:37.985Z,0.70
2022-09-20T09:08:16.476Z,0.40
2022-09-20T09:10:50.628Z,0.57
2022-09-20T09:13:26.328Z,0.30
2022-09-20T09:16:01.271Z,0.50
2022-09-20T09:18:36.442Z,0.77
2022-09-20T09:21:07.739Z,0.35
2022-09-20T09:23:44.212Z,0.45
2022-09-20T09:26:21.312Z,0.43
2022-09-20T09:29:11.461Z,0.30
2022-09-20T09:31:42.137Z,0.50
2022-09-20T09:34:26.368Z,0.20
2022-09-20T09:36:56.427Z,0.40
2022-09-20T09:39:29.076Z,0.30
2022-09-20T09:42:01.101Z,0.45
2022-09-20T09:44:33.868Z,0.20
2022-09-20T09:47:04.354Z,0.10
2022-09-20T09:49:36.366Z,0.30
2022-09-20T09:52:14.415Z,0.13
2022-09-20T09:54:50.290Z,0.38
2022-09-20T09:57:35.704Z,0.60
2022-09-20T10:00:19.355Z,0.35
2022-09-20T10:03:36.328Z,0.32
2022-09-20T10:06:18.328Z,0.15
2022-09-20T10:09:04.231Z,0.30
2022-09-20T10:11:51.666Z,0.17
2022-09-20T10:14:39.250Z,0.63
2022-09-20T10:17:40.093Z,0.50
2022-09-20T10:20:42.830Z,0.40
2022-09-20T10:26:33.154Z,0.47
2022-09-20T10:29:16.375Z,0.17
2022-09-20T10:32:01.687Z,0.13
2022-09-20T10:35:10.752Z,0.52
2022-09-20T10:38:02.593Z,0.40
2022-09-20T10:40:55.691Z,0.30
2022-09-20T10:43:45.407Z,0.20
2022-09-20T10:46:32.380Z,0.32
2022-09-20T10:49:23.955Z,0.40
2022-09-20T10:52:15.938Z,0.32
2022-09-20T10:55:14.751Z,0.20
2022-09-20T10:58:24.616Z,0.38
2022-09-20T11:01:04.149Z,0.30
2022-09-20T11:03:54.230Z,0.60
2022-09-20T11:06:34.179Z,0.32
2022-09-20T11:09:05.012Z,0.40
2022-09-20T11:11:41.141Z,0.63
2022-09-20T11:14:17.119Z,0.32
2022-09-20T11:16:52.113Z,0.22
2022-09-20T11:19:34.010Z,0.25
2022-09-20T11:22:09.977Z,0.10
2022-09-20T11:24:46.391Z,0.20
2022-09-20T11:27:22.390Z,0.40
2022-09-20T11:29:57.096Z,0.40
2022-09-20T11:32:33.037Z,0.40
2022-09-20T11:35:14.746Z,0.40
2022-09-20T11:37:52.522Z,0.40
2022-09-20T11:40:28.891Z,0.20
2022-09-20T11:43:03.908Z,0.30
2022-09-20T11:45:34.686Z,0.32
2022-09-20T11:48:11.372Z,0.70
2022-09-20T11:51:05.797Z,0.50
2022-09-20T11:53:58.462Z,0.68
2022-09-20T11:56:29.401Z,1.90
2022-09-20T11:59:03.858Z,5.50
2022-09-20T12:01:38.572Z,5.85
2022-09-20T12:04:31.825Z,0.60
2022-09-20T12:07:10.531Z,0.52
2022-09-20T12:09:44.405Z,3.40
2022-09-20T12:12:20.204Z,1.75
2022-09-20T12:15:01.542Z,1.35
2022-09-20T12:18:33.782Z,0.32
2022-09-20T12:21:16.607Z,0.80
2022-09-20T12:24:19.040Z,0.50
2022-09-20T12:26:51.366Z,0.88
2022-09-20T12:30:08.129Z,0.60
2022-09-20T12:32:57.610Z,0.65
2022-09-20T12:36:18.859Z,0.60
2022-09-20T12:39:03.358Z,0.47
2022-09-20T12:41:49.340Z,0.20
2022-09-20T12:44:40.790Z,0.30
2022-09-20T12:47:22.226Z,0.30
2022-09-20T12:50:11.007Z,0.30
2022-09-20T12:52:53.894Z,0.47
2022-09-20T12:55:55.365Z,0.65
2022-09-20T12:58:38.420Z,0.40
2022-09-20T13:01:32.940Z,0.40
2022-09-20T13:04:55.346Z,0.50
2022-09-20T13:07:53.297Z,0.45
2022-09-20T13:10:30.194Z,0.30
2022-09-20T13:13:17.353Z,0.43
2022-09-20T13:15:53.547Z,0.90
2022-09-20T13:18:25.480Z,0.35
2022-09-20T13:20:56.994Z,0.30
2022-09-20T13:23:34.356Z,0.30
2022-09-20T13:26:12.829Z,0.32
2022-09-20T13:28:59.220Z,0.17
2022-09-20T13:31:38.073Z,0.52
2022-09-20T13:34:23.038Z,0.98
2022-09-20T13:36:59.466Z,0.30
2022-09-20T13:39:43.560Z,0.43
2022-09-20T13:42:23.005Z,0.52
2022-09-20T13:45:00.342Z,0.30
2022-09-20T13:50:03.577Z,0.40
2022-09-20T13:52:34.022Z,0.40
2022-09-20T13:55:29.714Z,0.40
2022-09-20T13:58:27.338Z,0.60
2022-09-20T14:01:09.822Z,0.60
2022-09-20T14:03:39.062Z,0.57
2022-09-20T14:06:16.052Z,0.52
2022-09-20T14:08:52.638Z,0.40
2022-09-20T14:11:34.576Z,0.40
2022-09-20T14:14:12.426Z,0.60
2022-09-20T14:16:53.039Z,0.43
2022-09-20T14:19:34.387Z,0.40
2022-09-20T14:22:06.691Z,0.70
2022-09-20T14:24:39.843Z,0.43
2022-09-20T14:27:21.763Z,0.50
2022-09-20T14:29:57.355Z,0.60
2022-09-20T14:32:46.515Z,0.47
2022-09-20T14:35:29.063Z,0.38
2022-09-20T14:38:10.318Z,0.50
2022-09-20T14:40:47.924Z,0.60
2022-09-20T14:43:32.534Z,0.25
2022-09-20T14:46:25.593Z,0.55
2022-09-20T14:48:54.828Z,0.40
2022-09-20T14:51:30.285Z,0.43
2022-09-20T14:54:33.745Z,0.60
2022-09-20T14:57:11.897Z,0.28
2022-09-20T14:59:52.310Z,0.70
2022-09-20T15:02:22.488Z,0.90
2022-09-20T15:04:57.210Z,0.45
2022-09-20T15:07:35.671Z,0.63
2022-09-20T15:10:05.557Z,0.90
2022-09-20T15:12:34.896Z,0.70
2022-09-20T15:15:07.183Z,0.30
2022-09-20T15:17:36.277Z,0.50
2022-09-20T15:20:06.651Z,0.32
2022-09-20T15:22:35.985Z,0.35
2022-09-20T15:25:06.534Z,0.80
2022-09-20T15:27:35.584Z,0.63
2022-09-20T15:30:07.719Z,0.57
2022-09-20T15:32:37.970Z,0.68
2022-09-20T15:35:14.130Z,0.77
2022-09-20T15:37:43.381Z,0.50
2022-09-20T15:40:13.831Z,0.30
2022-09-20T15:42:43.385Z,0.65
2022-09-20T15:45:14.984Z,1.00
2022-09-20T15:47:44.354Z,0.50
2022-09-20T15:50:13.683Z,0.70
2022-09-20T15:52:43.133Z,0.45
2022-09-20T15:55:13.534Z,0.65
2022-09-20T15:57:42.640Z,0.47
2022-09-20T16:00:14.715Z,0.98
2022-09-20T16:02:44.599Z,0.63
2022-09-20T16:05:13.760Z,0.50
2022-09-20T16:07:42.855Z,0.52
2022-09-20T16:10:13.166Z,0.77
2022-09-20T16:12:42.365Z,0.60
2022-09-20T16:15:14.515Z,0.60
2022-09-20T16:18:01.317Z,0.75
2022-09-20T16:20:30.418Z,0.30
2022-09-20T16:22:59.565Z,0.60
2022-09-20T16:25:28.765Z,0.55
2022-09-20T16:27:59.098Z,0.60
2022-09-20T16:30:30.883Z,0.65
2022-09-20T16:33:05.458Z,0.60
2022-09-20T16:35:34.718Z,0.70
2022-09-20T16:38:03.923Z,0.55
2022-09-20T16:40:35.166Z,0.50
2022-09-20T16:43:04.471Z,0.60
2022-09-20T16:45:36.205Z,0.60
2022-09-20T16:48:08.561Z,1.10
2022-09-20T16:50:40.049Z,0.90
2022-09-20T16:53:09.221Z,1.10
2022-09-20T16:55:38.723Z,1.20
2022-09-20T16:58:09.377Z,0.60
2022-09-20T17:00:41.365Z,0.70
2022-09-20T17:03:12.411Z,0.90
2022-09-20T17:05:42.427Z,0.68
2022-09-20T17:08:12.824Z,0.65
2022-09-20T17:10:42.229Z,0.70
2022-09-20T17:13:12.582Z,0.93
2022-09-20T17:15:44.790Z,1.10
2022-09-20T17:18:15.812Z,2.78
2022-09-20T17:20:45.141Z,2.72
2022-09-20T17:23:14.743Z,1.60
2022-09-20T17:25:46.310Z,1.05
2022-09-20T17:28:15.684Z,0.90
2022-09-20T17:30:46.152Z,2.00
2022-09-20T17:33:15.577Z,1.27
2022-09-20T17:35:52.515Z,0.90
2022-09-20T17:38:22.289Z,0.50
2022-09-20T17:41:01.842Z,0.55
2022-09-20T17:43:32.498Z,0.68
2022-09-20T17:46:14.560Z,0.75
2022-09-20T17:48:49.121Z,0.77
2022-09-20T17:51:20.685Z,0.68
2022-09-20T17:53:50.920Z,0.80
2022-09-20T17:56:23.429Z,0.77
2022-09-20T17:58:53.020Z,0.77
2022-09-20T18:01:26.009Z,0.80
2022-09-20T18:03:57.700Z,0.80
2022-09-20T18:06:31.623Z,0.40
2022-09-20T18:09:05.240Z,0.60
2022-09-20T18:11:40.464Z,0.70
2022-09-20T18:14:13.846Z,1.23
2022-09-20T18:16:45.769Z,1.83
2022-09-20T18:19:16.283Z,3.50
2022-09-20T18:21:46.014Z,2.05
2022-09-20T18:24:15.174Z,1.40
2022-09-20T18:26:44.701Z,1.00
2022-09-20T18:29:18.031Z,1.77
2022-09-20T18:31:52.192Z,1.77
2022-09-20T18:34:23.560Z,1.08
2022-09-20T18:36:55.548Z,1.30
2022-09-20T18:39:26.721Z,0.95
2022-09-20T18:41:57.384Z,1.10
2022-09-20T18:44:27.658Z,1.17
2022-09-20T18:46:58.651Z,2.05
2022-09-20T18:49:29.202Z,3.28
2022-09-20T18:51:59.231Z,2.97
2022-09-20T18:54:30.956Z,1.88
2022-09-20T18:57:01.435Z,2.20
2022-09-20T18:59:31.245Z,2.10
2022-09-20T19:02:35.721Z,3.30
2022-09-20T19:05:28.328Z,2.25
2022-09-20T19:08:17.315Z,0.80
2022-09-20T19:10:53.284Z,0.68
2022-09-20T19:13:39.453Z,0.70
2022-09-20T19:16:20.747Z,0.50
2022-09-20T19:19:20.245Z,0.50
2022-09-20T19:21:59.996Z,0.50
2022-09-20T19:25:06.802Z,0.70
2022-09-20T19:27:36.877Z,0.43
2022-09-20T19:30:08.674Z,0.70
2022-09-20T19:32:38.790Z,0.90
2022-09-20T19:35:20.201Z,2.00
2022-09-20T19:38:04.484Z,1.85
2022-09-20T19:40:46.477Z,0.70
2022-09-20T19:43:52.746Z,1.05
2022-09-20T19:46:41.595Z,1.25
2022-09-20T19:49:16.443Z,1.20
2022-09-20T19:51:47.518Z,1.35
2022-09-20T19:54:18.851Z,1.10
2022-09-20T19:57:01.842Z,1.27
2022-09-20T19:59:32.017Z,1.50
2022-09-20T20:02:02.332Z,1.17
2022-09-20T20:04:32.356Z,1.10
2022-09-20T20:07:15.539Z,1.00
2022-09-20T20:09:53.372Z,0.60
2022-09-20T20:12:31.021Z,1.80
2022-09-20T20:15:16.219Z,1.20
2022-09-20T20:17:59.049Z,1.67
2022-09-20T20:20:35.962Z,1.80
2022-09-20T20:23:49.783Z,1.73
2022-09-20T20:26:23.517Z,1.50
2022-09-20T20:28:54.985Z,1.10
2022-09-20T20:31:24.566Z,1.30
2022-09-20T20:33:55.007Z,0.82
2022-09-20T20:36:24.207Z,0.68
2022-09-20T20:39:28.970Z,0.50
2022-09-20T20:42:01.913Z,0.70
2022-09-20T20:44:32.238Z,1.50
2022-09-20T20:47:01.845Z,1.20
2022-09-20T20:49:34.268Z,1.20
2022-09-20T20:52:05.302Z,1.35
2022-09-20T20:54:36.323Z,1.40
2022-09-20T20:57:06.005Z,1.55
2022-09-20T20:59:35.350Z,1.60
2022-09-20T21:02:07.851Z,1.90
2022-09-20T21:04:37.299Z,2.08
2022-09-20T21:07:08.677Z,1.58
2022-09-20T21:09:39.829Z,1.48
2022-09-20T21:12:09.508Z,1.90
2022-09-20T21:14:41.114Z,1.92
2022-09-20T21:17:10.264Z,2.10
2022-09-20T21:19:39.811Z,2.40
2022-09-20T21:22:14.289Z,2.58
2022-09-20T21:24:45.549Z,2.20
2022-09-20T21:27:14.918Z,2.78
2022-09-20T21:29:44.233Z,2.53
2022-09-20T21:32:14.395Z,2.70
2022-09-20T21:35:11.779Z,2.40
2022-09-20T21:37:41.413Z,2.13
2022-09-20T21:40:12.866Z,2.30
2022-09-20T21:42:42.169Z,2.40
2022-09-20T21:45:11.797Z,2.45
2022-09-20T21:47:41.001Z,2.40
2022-09-20T21:50:10.846Z,2.38
2022-09-20T21:52:40.246Z,2.17
2022-09-20T21:55:11.487Z,2.13
2022-09-20T21:57:40.800Z,2.50
2022-09-20T22:00:38.980Z,2.30
2022-09-20T22:03:08.162Z,2.85
2022-09-20T22:05:37.645Z,2.70
2022-09-20T22:08:07.788Z,2.40
2022-09-20T22:10:38.301Z,2.30
2022-09-20T22:13:07.595Z,2.78
2022-09-20T22:15:36.731Z,2.10
2022-09-20T22:18:06.223Z,1.75
2022-09-20T22:20:35.374Z,1.85
2022-09-20T22:23:04.519Z,2.20
2022-09-20T22:25:34.478Z,2.05
2022-09-20T22:28:05.197Z,1.95
2022-09-20T22:30:34.808Z,2.22
2022-09-20T22:33:05.701Z,2.35
2022-09-20T22:35:35.008Z,2.05
2022-09-20T22:38:04.142Z,2.13
2022-09-20T22:40:33.324Z,2.20
2022-09-20T22:43:02.557Z,2.17
2022-09-20T22:45:33.333Z,1.90
2022-09-20T22:48:03.039Z,2.10
2022-09-20T22:50:32.100Z,2.20
2022-09-20T22:53:01.238Z,2.05
2022-09-20T22:55:30.367Z,2.15
2022-09-20T22:57:59.602Z,2.42
2022-09-20T23:00:28.906Z,4.53
2022-09-20T23:03:00.102Z,6.13
2022-09-20T23:05:29.524Z,5.00
2022-09-20T23:07:58.796Z,4.32
2022-09-20T23:10:27.967Z,5.15
2022-09-20T23:12:57.064Z,6.70
2022-09-20T23:15:26.275Z,7.43
2022-09-20T23:17:55.548Z,8.50
2022-09-20T23:20:26.261Z,10.00
2022-09-20T23:22:55.373Z,10.18
2022-09-20T23:25:24.560Z,10.30
2022-09-20T23:27:56.029Z,10.73
2022-09-20T23:30:25.458Z,7.13
2022-09-20T23:32:54.967Z,5.03
2022-09-20T23:35:25.650Z,3.40
2022-09-20T23:37:56.838Z,2.50
2022-09-20T23:40:26.049Z,2.97
2022-09-20T23:42:55.278Z,2.60
2022-09-20T23:45:24.559Z,3.08
2022-09-20T23:47:53.801Z,3.80
2022-09-20T23:50:23.042Z,4.85
2022-09-20T23:52:56.918Z,6.05
2022-09-20T23:55:26.233Z,5.40
2022-09-20T23:57:57.479Z,5.97
